createdAt,value
2018-08-08T00:00:31.239Z,63.40
2018-08-08T00:03:00.069Z,63.60
2018-08-08T00:05:28.764Z,63.80
2018-08-08T00:07:57.417Z,63.90
2018-08-08T00:10:30.091Z,64.00
2018-08-08T00:12:58.713Z,64.20
2018-08-08T00:15:32.025Z,65.30
2018-08-08T00:18:00.676Z,64.70
2018-08-08T00:20:29.452Z,65.00
2018-08-08T00:22:58.164Z,64.90
2018-08-08T00:25:28.296Z,65.10
2018-08-08T00:27:56.908Z,65.20
2018-08-08T00:30:25.946Z,65.20
2018-08-08T00:32:54.722Z,65.30
2018-08-08T00:35:23.453Z,65.40
2018-08-08T00:37:52.129Z,65.30
2018-08-08T00:40:21.367Z,65.30
2018-08-08T00:42:50.073Z,65.50
2018-08-08T00:45:18.729Z,65.30
2018-08-08T00:47:48.088Z,65.30
2018-08-08T00:50:17.485Z,65.20
2018-08-08T00:52:46.351Z,64.80
2018-08-08T00:55:15.038Z,64.70
2018-08-08T00:57:43.738Z,64.70
2018-08-08T01:00:14.701Z,64.80
2018-08-08T01:02:43.467Z,64.70
2018-08-08T01:05:13.305Z,64.60
2018-08-08T01:07:42.913Z,64.60
2018-08-08T01:10:11.781Z,64.60
2018-08-08T01:12:40.529Z,64.60
2018-08-08T01:15:10.580Z,64.40
2018-08-08T01:17:39.556Z,64.70
2018-08-08T01:20:11.224Z,64.50
2018-08-08T01:22:39.929Z,64.50
2018-08-08T01:25:11.740Z,64.50
2018-08-08T01:27:41.332Z,64.60
2018-08-08T01:30:12.932Z,64.50
2018-08-08T01:32:42.133Z,64.70
2018-08-08T01:35:11.012Z,64.60
2018-08-08T01:37:39.835Z,64.60
2018-08-08T01:40:13.761Z,64.50
2018-08-08T01:42:42.873Z,64.50
2018-08-08T01:45:12.836Z,64.40
2018-08-08T01:47:41.549Z,64.50
2018-08-08T01:50:11.905Z,64.50
2018-08-08T01:52:40.825Z,64.40
2018-08-08T01:55:11.884Z,64.50
2018-08-08T01:57:40.660Z,64.50
2018-08-08T02:00:12.368Z,64.50
2018-08-08T02:02:41.551Z,64.60
2018-08-08T02:05:10.685Z,64.70
2018-08-08T02:07:39.740Z,65.60
2018-08-08T02:10:10.969Z,64.90
2018-08-08T02:12:39.984Z,65.10
2018-08-08T02:15:10.987Z,65.00
2018-08-08T02:17:39.729Z,65.10
2018-08-08T02:20:09.609Z,65.10
2018-08-08T02:22:38.760Z,65.20
2018-08-08T02:25:08.196Z,65.20
2018-08-08T02:27:37.551Z,65.30
2018-08-08T02:30:11.113Z,65.50
2018-08-08T02:32:39.786Z,65.60
2018-08-08T02:35:08.492Z,65.60
2018-08-08T02:37:37.181Z,65.30
2018-08-08T02:40:07.053Z,65.40
2018-08-08T02:42:35.676Z,65.40
2018-08-08T02:45:05.548Z,65.50
2018-08-08T02:47:34.295Z,65.50
2018-08-08T02:50:02.986Z,65.50
2018-08-08T02:52:31.625Z,65.60
2018-08-08T02:55:00.380Z,65.70
2018-08-08T02:57:29.099Z,65.70
2018-08-08T02:59:57.816Z,65.90
2018-08-08T03:02:28.570Z,65.90
2018-08-08T03:04:57.321Z,65.80
2018-08-08T03:07:26.384Z,65.60
2018-08-08T03:09:55.616Z,65.70
2018-08-08T03:12:24.391Z,65.70
2018-08-08T03:14:53.077Z,65.70
2018-08-08T03:17:21.851Z,65.60
2018-08-08T03:19:50.588Z,65.50
2018-08-08T03:22:20.033Z,65.40
2018-08-08T03:24:48.707Z,65.60
2018-08-08T03:27:17.448Z,65.70
2018-08-08T03:29:46.084Z,65.90
2018-08-08T03:32:14.900Z,65.90
2018-08-08T03:34:43.628Z,65.80
2018-08-08T03:37:12.358Z,65.90
2018-08-08T03:39:41.049Z,65.90
2018-08-08T03:42:09.795Z,65.90
2018-08-08T03:44:38.473Z,66.10
2018-08-08T03:47:07.414Z,66.30
2018-08-08T03:49:36.579Z,66.30
2018-08-08T03:52:05.372Z,66.20
2018-08-08T03:54:34.277Z,66.20
2018-08-08T03:57:02.990Z,66.20
2018-08-08T03:59:31.739Z,66.10
2018-08-08T04:02:01.533Z,66.10
2018-08-08T04:04:30.936Z,66.20
2018-08-08T04:06:59.662Z,66.30
2018-08-08T04:09:33.197Z,66.30
2018-08-08T04:12:01.892Z,66.20
2018-08-08T04:14:30.728Z,66.20
2018-08-08T04:16:59.361Z,66.30
2018-08-08T04:19:29.105Z,66.10
2018-08-08T04:21:57.799Z,65.70
2018-08-08T04:24:27.465Z,65.80
2018-08-08T04:26:57.626Z,66.10
2018-08-08T04:29:26.417Z,66.00
2018-08-08T04:31:55.083Z,66.20
2018-08-08T04:34:23.716Z,66.30
2018-08-08T04:36:52.457Z,66.40
2018-08-08T04:39:21.192Z,66.50
2018-08-08T04:41:49.849Z,66.50
2018-08-08T04:44:18.627Z,66.50
2018-08-08T04:46:47.287Z,66.60
2018-08-08T04:49:16.004Z,66.60
2018-08-08T04:51:44.632Z,66.70
2018-08-08T04:54:13.301Z,66.80
2018-08-08T04:56:42.004Z,66.70
2018-08-08T04:59:10.736Z,66.70
2018-08-08T05:01:39.381Z,66.60
2018-08-08T05:04:08.111Z,66.50
2018-08-08T05:06:36.808Z,66.50
2018-08-08T05:09:08.872Z,66.30
2018-08-08T05:11:37.645Z,66.30
2018-08-08T05:14:06.723Z,66.20
2018-08-08T05:16:35.768Z,66.20
2018-08-08T05:19:04.885Z,66.00
2018-08-08T05:21:33.576Z,66.00
2018-08-08T05:24:02.260Z,65.90
2018-08-08T05:26:30.961Z,65.70
2018-08-08T05:28:59.661Z,65.50
2018-08-08T05:31:29.113Z,65.70
2018-08-08T05:33:58.097Z,66.50
2018-08-08T05:36:27.407Z,65.90
2018-08-08T05:38:56.097Z,65.90
2018-08-08T05:41:24.876Z,65.80
2018-08-08T05:43:53.570Z,65.90
2018-08-08T05:46:22.330Z,65.80
2018-08-08T05:48:51.033Z,65.70
2018-08-08T05:51:19.781Z,65.50
2018-08-08T05:53:48.544Z,65.70
2018-08-08T05:56:17.292Z,65.60
2018-08-08T05:58:46.000Z,65.60
2018-08-08T06:01:14.671Z,65.80
2018-08-08T06:03:44.298Z,65.70
2018-08-08T06:06:13.857Z,65.70
2018-08-08T06:08:43.520Z,65.70
2018-08-08T06:11:12.244Z,65.70
2018-08-08T06:13:40.996Z,65.60
2018-08-08T06:16:09.669Z,65.80
2018-08-08T06:18:38.336Z,65.70
2018-08-08T06:21:08.100Z,65.90
2018-08-08T06:23:36.812Z,66.00
2018-08-08T06:26:05.544Z,65.90
2018-08-08T06:28:34.210Z,65.80
2018-08-08T06:31:02.929Z,65.70
2018-08-08T06:33:31.721Z,66.50
2018-08-08T06:36:00.441Z,65.80
2018-08-08T06:38:29.180Z,65.70
2018-08-08T06:40:57.896Z,65.70
2018-08-08T06:43:26.921Z,65.70
2018-08-08T06:45:55.691Z,65.80
2018-08-08T06:48:24.328Z,65.80
2018-08-08T06:50:53.033Z,65.90
2018-08-08T06:53:21.667Z,65.80
2018-08-08T06:55:50.558Z,65.70
2018-08-08T06:58:19.288Z,65.60
2018-08-08T07:00:48.000Z,65.70
2018-08-08T07:03:16.668Z,65.50
2018-08-08T07:05:45.353Z,65.60
2018-08-08T07:08:14.029Z,65.50
2018-08-08T07:10:42.753Z,65.50
2018-08-08T07:13:12.084Z,65.50
2018-08-08T07:15:40.822Z,65.60
2018-08-08T07:18:09.584Z,65.40
2018-08-08T07:20:38.329Z,65.50
2018-08-08T07:23:07.129Z,65.60
2018-08-08T07:25:35.825Z,65.70
2018-08-08T07:28:04.598Z,65.80
2018-08-08T07:30:33.384Z,65.60
2018-08-08T07:33:02.084Z,65.70
2018-08-08T07:35:30.870Z,65.90
2018-08-08T07:38:00.848Z,65.70
2018-08-08T07:40:29.545Z,65.60
2018-08-08T07:42:58.827Z,65.50
2018-08-08T07:45:28.591Z,65.50
2018-08-08T07:47:58.047Z,65.40
2018-08-08T07:50:26.803Z,65.30
2018-08-08T07:52:56.389Z,65.60
2018-08-08T07:55:30.305Z,65.50
2018-08-08T07:57:59.209Z,65.30
2018-08-08T08:00:31.022Z,65.00
2018-08-08T08:03:00.404Z,64.90
2018-08-08T08:05:29.768Z,64.90
2018-08-08T08:07:58.969Z,64.60
2018-08-08T08:10:28.500Z,64.80
2018-08-08T08:12:57.272Z,64.60
2018-08-08T08:15:26.247Z,64.50
2018-08-08T08:17:54.942Z,64.60
2018-08-08T08:20:23.641Z,64.40
2018-08-08T08:22:55.483Z,64.30
2018-08-08T08:25:24.936Z,64.20
2018-08-08T08:27:54.553Z,63.90
2018-08-08T08:30:25.060Z,63.70
2018-08-08T08:32:53.809Z,63.80
2018-08-08T08:35:23.052Z,63.80
2018-08-08T08:37:52.465Z,63.80
2018-08-08T08:40:21.201Z,63.90
2018-08-08T08:42:49.895Z,64.20
2018-08-08T08:45:19.377Z,63.60
2018-08-08T08:47:49.119Z,63.50
2018-08-08T08:50:18.093Z,63.40
2018-08-08T08:52:46.850Z,63.50
2018-08-08T08:55:16.104Z,63.50
2018-08-08T08:57:44.761Z,62.70
2018-08-08T09:00:14.530Z,62.60
2018-08-08T09:02:43.662Z,62.50
2018-08-08T09:05:13.234Z,62.50
2018-08-08T09:07:41.948Z,62.50
2018-08-08T09:10:11.379Z,62.20
2018-08-08T09:12:40.689Z,62.10
2018-08-08T09:15:11.204Z,62.10
2018-08-08T09:17:40.656Z,61.90
2018-08-08T09:20:09.456Z,61.10
2018-08-08T09:22:38.519Z,61.10
2018-08-08T09:25:08.396Z,60.70
2018-08-08T09:27:37.417Z,60.60
2018-08-08T09:30:10.099Z,60.50
2018-08-08T09:32:40.082Z,60.50
2018-08-08T09:35:08.960Z,60.10
2018-08-08T09:37:42.482Z,60.00
2018-08-08T09:40:12.588Z,59.80
2018-08-08T09:42:41.334Z,59.50
2018-08-08T09:45:10.583Z,59.20
2018-08-08T09:47:39.476Z,59.10
2018-08-08T09:50:09.498Z,58.70
2018-08-08T09:52:39.085Z,58.40
2018-08-08T09:55:07.829Z,58.00
2018-08-08T09:57:37.138Z,58.30
2018-08-08T10:00:07.106Z,57.50
2018-08-08T10:02:40.120Z,57.40
2018-08-08T10:05:09.053Z,57.00
2018-08-08T10:07:37.799Z,56.90
2018-08-08T10:10:07.225Z,56.00
2018-08-08T10:12:35.974Z,55.60
2018-08-08T10:15:05.194Z,55.30
2018-08-08T10:17:33.917Z,55.30
2018-08-08T10:20:02.604Z,54.90
2018-08-08T10:22:31.313Z,54.30
2018-08-08T10:24:59.949Z,54.20
2018-08-08T10:27:29.403Z,54.20
2018-08-08T10:29:58.617Z,54.10
2018-08-08T10:32:31.354Z,54.10
2018-08-08T10:35:00.644Z,53.80
2018-08-08T10:37:29.896Z,53.40
2018-08-08T10:39:59.969Z,53.40
2018-08-08T10:42:29.393Z,52.60
2018-08-08T10:44:58.118Z,52.60
2018-08-08T10:47:28.205Z,52.40
2018-08-08T10:49:57.241Z,52.10
2018-08-08T10:52:31.368Z,52.20
2018-08-08T10:55:00.086Z,52.10
2018-08-08T10:57:29.572Z,51.80
2018-08-08T10:59:58.245Z,50.50
2018-08-08T11:02:27.353Z,49.90
2018-08-08T11:04:56.613Z,50.20
2018-08-08T11:07:25.748Z,50.40
2018-08-08T11:09:55.961Z,50.30
2018-08-08T11:12:24.882Z,50.10
2018-08-08T11:14:53.707Z,49.90
2018-08-08T11:17:22.453Z,49.60
2018-08-08T11:19:51.936Z,49.50
2018-08-08T11:22:20.606Z,49.40
2018-08-08T11:24:49.288Z,49.30
2018-08-08T11:27:18.227Z,48.80
2018-08-08T11:29:47.244Z,48.20
2018-08-08T11:32:20.057Z,47.90
2018-08-08T11:34:48.738Z,47.20
2018-08-08T11:37:17.513Z,46.60
2018-08-08T11:39:46.148Z,46.30
2018-08-08T11:42:14.875Z,45.40
2018-08-08T11:44:43.714Z,45.40
2018-08-08T11:47:12.881Z,45.20
2018-08-08T11:49:41.575Z,45.40
2018-08-08T11:52:10.296Z,45.70
2018-08-08T11:54:38.925Z,45.80
2018-08-08T11:57:08.065Z,46.10
2018-08-08T11:59:36.749Z,45.90
2018-08-08T12:02:06.099Z,45.50
2018-08-08T12:04:35.172Z,45.10
2018-08-08T12:07:08.253Z,45.00
2018-08-08T12:09:36.920Z,45.10
2018-08-08T12:12:06.216Z,44.80
2018-08-08T12:14:36.208Z,44.70
2018-08-08T12:17:06.381Z,44.50
2018-08-08T12:19:35.079Z,44.40
2018-08-08T12:22:03.813Z,45.00
2018-08-08T12:24:32.490Z,45.40
2018-08-08T12:27:01.154Z,44.60
2018-08-08T12:29:29.864Z,43.80
2018-08-08T12:31:58.556Z,43.50
2018-08-08T12:34:27.912Z,43.20
2018-08-08T12:36:57.114Z,42.90
2018-08-08T12:39:27.193Z,43.00
2018-08-08T12:41:56.584Z,42.90
2018-08-08T12:44:30.125Z,43.50
2018-08-08T12:46:59.396Z,44.00
2018-08-08T12:49:32.881Z,44.30
2018-08-08T12:52:01.526Z,44.20
2018-08-08T12:54:30.210Z,44.10
2018-08-08T12:56:58.889Z,44.40
2018-08-08T12:59:28.456Z,44.60
2018-08-08T13:01:57.115Z,44.30
2018-08-08T13:04:26.516Z,44.20
2018-08-08T13:06:57.149Z,43.90
2018-08-08T13:09:27.324Z,43.70
2018-08-08T13:11:56.782Z,43.40
2018-08-08T13:14:25.957Z,43.20
2018-08-08T13:16:58.754Z,43.20
2018-08-08T13:19:31.729Z,43.20
2018-08-08T13:22:00.643Z,43.30
2018-08-08T13:24:29.836Z,43.30
2018-08-08T13:26:58.541Z,43.40
2018-08-08T13:29:28.864Z,43.40
2018-08-08T13:31:57.568Z,43.60
2018-08-08T13:34:27.760Z,43.80
2018-08-08T13:36:57.129Z,43.90
2018-08-08T13:39:27.160Z,43.70
2018-08-08T13:41:56.557Z,43.80
2018-08-08T13:44:32.276Z,43.80
2018-08-08T13:47:05.409Z,44.10
2018-08-08T13:49:34.069Z,43.70
2018-08-08T13:52:02.741Z,43.60
2018-08-08T13:54:32.118Z,43.30
2018-08-08T13:57:00.830Z,42.80
2018-08-08T13:59:29.474Z,42.80
2018-08-08T14:01:58.268Z,42.70
2018-08-08T14:04:28.347Z,42.40
2018-08-08T14:06:57.639Z,42.00
2018-08-08T14:09:31.814Z,41.80
2018-08-08T14:12:00.548Z,41.40
2018-08-08T14:14:29.568Z,41.30
2018-08-08T14:16:58.792Z,41.20
2018-08-08T14:19:31.687Z,41.20
2018-08-08T14:22:00.446Z,41.10
2018-08-08T14:24:29.834Z,40.80
2018-08-08T14:26:59.161Z,40.60
2018-08-08T14:29:29.157Z,40.50
2018-08-08T14:31:58.365Z,40.60
2018-08-08T14:34:28.086Z,40.30
2018-08-08T14:36:58.141Z,40.30
2018-08-08T14:39:30.992Z,40.30
2018-08-08T14:41:59.752Z,40.40
2018-08-08T14:44:29.127Z,40.40
2018-08-08T14:46:59.016Z,40.40
2018-08-08T14:49:32.431Z,40.30
2018-08-08T14:52:02.098Z,40.40
2018-08-08T14:54:31.397Z,40.30
2018-08-08T14:57:00.118Z,40.20
2018-08-08T14:59:33.030Z,40.30
2018-08-08T15:02:01.800Z,40.40
2018-08-08T15:04:31.024Z,40.30
2018-08-08T15:06:59.803Z,40.30
2018-08-08T15:09:29.533Z,40.30
2018-08-08T15:11:59.169Z,40.60
2018-08-08T15:14:28.713Z,40.00
2018-08-08T15:16:57.964Z,40.00
2018-08-08T15:19:28.164Z,39.90
2018-08-08T15:21:57.245Z,39.60
2018-08-08T15:24:26.810Z,39.70
2018-08-08T15:26:55.864Z,39.30
2018-08-08T15:29:24.653Z,39.30
2018-08-08T15:31:54.208Z,39.30
2018-08-08T15:34:22.905Z,40.00
2018-08-08T15:36:51.765Z,39.40
2018-08-08T15:39:20.531Z,39.40
2018-08-08T15:41:49.965Z,39.30
2018-08-08T15:44:18.714Z,39.10
2018-08-08T15:46:51.760Z,38.90
2018-08-08T15:49:20.741Z,39.00
2018-08-08T15:51:50.525Z,39.10
2018-08-08T15:54:19.201Z,38.70
2018-08-08T15:56:48.017Z,38.50
2018-08-08T15:59:17.300Z,38.30
2018-08-08T16:01:46.558Z,38.40
2018-08-08T16:04:20.454Z,38.50
2018-08-08T16:06:49.128Z,38.40
2018-08-08T16:09:17.849Z,38.40
2018-08-08T16:11:47.207Z,38.40
2018-08-08T16:14:16.761Z,38.50
2018-08-08T16:16:45.485Z,37.90
2018-08-08T16:19:14.192Z,37.90
2018-08-08T16:21:42.892Z,38.10
2018-08-08T16:24:11.575Z,38.10
2018-08-08T16:26:40.612Z,38.20
2018-08-08T16:29:09.245Z,38.20
2018-08-08T16:31:37.964Z,38.50
2018-08-08T16:34:07.359Z,38.70
2018-08-08T16:36:40.480Z,38.90
2018-08-08T16:39:10.897Z,39.30
2018-08-08T16:41:40.805Z,39.50
2018-08-08T16:44:09.552Z,40.00
2018-08-08T16:46:38.752Z,40.60
2018-08-08T16:49:07.434Z,41.20
2018-08-08T16:51:37.648Z,41.40
2018-08-08T16:54:07.882Z,41.60
2018-08-08T16:56:37.316Z,41.80
2018-08-08T16:59:06.581Z,41.80
2018-08-08T17:01:35.805Z,42.10
2018-08-08T17:04:04.890Z,42.20
2018-08-08T17:06:34.028Z,42.30
2018-08-08T17:09:02.772Z,42.50
2018-08-08T17:11:32.140Z,42.30
2018-08-08T17:14:00.821Z,42.40
2018-08-08T17:16:30.126Z,42.50
2018-08-08T17:19:03.467Z,42.90
2018-08-08T17:21:32.912Z,43.30
2018-08-08T17:24:01.614Z,43.70
2018-08-08T17:26:30.915Z,43.90
2018-08-08T17:29:00.056Z,44.10
2018-08-08T17:31:30.719Z,44.20
2018-08-08T17:33:59.567Z,44.40
2018-08-08T17:36:29.092Z,44.70
2018-08-08T17:38:58.471Z,44.90
2018-08-08T17:41:27.577Z,45.20
2018-08-08T17:43:57.679Z,45.50
2018-08-08T17:46:30.363Z,45.90
2018-08-08T17:48:59.080Z,46.00
2018-08-08T17:51:29.073Z,46.30
2018-08-08T17:53:57.716Z,46.50
2018-08-08T17:56:26.669Z,46.70
2018-08-08T17:58:55.346Z,46.80
2018-08-08T18:01:24.896Z,47.10
2018-08-08T18:03:53.853Z,47.20
2018-08-08T18:06:22.652Z,47.50
2018-08-08T18:08:51.363Z,48.30
2018-08-08T18:11:20.777Z,47.80
2018-08-08T18:13:49.563Z,48.00
2018-08-08T18:16:18.265Z,48.00
2018-08-08T18:18:47.565Z,48.00
2018-08-08T18:21:16.202Z,48.10
2018-08-08T18:23:45.039Z,48.40
2018-08-08T18:26:14.368Z,48.40
2018-08-08T18:28:43.317Z,48.30
2018-08-08T18:31:12.016Z,48.30
2018-08-08T18:33:40.673Z,48.40
2018-08-08T18:36:10.191Z,48.40
2018-08-08T18:38:38.852Z,48.50
2018-08-08T18:41:07.606Z,48.90
2018-08-08T18:43:36.824Z,49.10
2018-08-08T18:46:07.082Z,49.40
2018-08-08T18:48:36.513Z,49.60
2018-08-08T18:51:05.250Z,50.00
2018-08-08T18:53:34.008Z,50.30
2018-08-08T18:56:02.738Z,50.60
2018-08-08T18:58:32.065Z,51.10
2018-08-08T19:01:00.731Z,51.30
2018-08-08T19:03:30.665Z,51.60
2018-08-08T19:06:00.208Z,51.90
2018-08-08T19:08:30.871Z,52.10
2018-08-08T19:11:00.296Z,52.30
2018-08-08T19:13:29.690Z,52.60
2018-08-08T19:15:58.381Z,52.80
2018-08-08T19:18:31.269Z,53.10
2018-08-08T19:21:00.009Z,53.30
2018-08-08T19:23:29.036Z,53.70
2018-08-08T19:25:58.522Z,53.60
2018-08-08T19:28:27.894Z,53.80
2018-08-08T19:30:57.348Z,53.90
2018-08-08T19:33:27.071Z,54.10
2018-08-08T19:35:56.877Z,54.20
2018-08-08T19:38:26.122Z,54.30
2018-08-08T19:40:54.940Z,54.30
2018-08-08T19:43:23.654Z,54.60
2018-08-08T19:45:52.445Z,54.60
2018-08-08T19:48:23.177Z,54.70
2018-08-08T19:50:55.595Z,54.90
2018-08-08T19:53:25.367Z,55.10
2018-08-08T19:55:55.325Z,55.20
2018-08-08T19:58:24.485Z,55.30
2018-08-08T20:00:53.529Z,55.30
2018-08-08T20:03:23.429Z,55.40
2018-08-08T20:05:52.928Z,55.50
2018-08-08T20:08:27.152Z,55.50
2018-08-08T20:10:58.022Z,55.70
2018-08-08T20:13:27.570Z,55.70
2018-08-08T20:15:57.602Z,55.90
2018-08-08T20:18:27.033Z,56.00
2018-08-08T20:20:56.841Z,56.00
2018-08-08T20:23:25.510Z,56.10
2018-08-08T20:25:54.287Z,56.10
2018-08-08T20:28:23.018Z,56.20
2018-08-08T20:30:51.858Z,56.20
2018-08-08T20:33:21.035Z,56.30
2018-08-08T20:35:50.285Z,56.40
2018-08-08T20:38:19.514Z,56.50
2018-08-08T20:40:48.759Z,56.50
2018-08-08T20:43:17.450Z,56.70
2018-08-08T20:45:47.233Z,56.80
2018-08-08T20:48:16.560Z,56.80
2018-08-08T20:50:45.331Z,57.00
2018-08-08T20:53:14.056Z,57.10
2018-08-08T20:55:43.342Z,57.20
2018-08-08T20:58:12.041Z,57.50
2018-08-08T21:00:40.677Z,57.50
2018-08-08T21:03:09.369Z,57.50
2018-08-08T21:05:38.548Z,57.50
2018-08-08T21:08:07.275Z,57.60
2018-08-08T21:10:36.096Z,57.70
2018-08-08T21:13:04.920Z,57.70
2018-08-08T21:15:34.380Z,57.60
2018-08-08T21:18:04.378Z,57.70
2018-08-08T21:20:33.996Z,57.80
2018-08-08T21:23:03.451Z,57.90
2018-08-08T21:25:33.229Z,57.90
2018-08-08T21:28:02.682Z,58.10
2018-08-08T21:30:31.365Z,58.90
2018-08-08T21:33:00.079Z,58.40
2018-08-08T21:35:30.192Z,58.50
2018-08-08T21:37:58.893Z,58.50
2018-08-08T21:40:28.361Z,58.60
2018-08-08T21:42:57.042Z,58.70
2018-08-08T21:45:26.329Z,58.60
2018-08-08T21:47:56.365Z,58.80
2018-08-08T21:50:26.420Z,59.50
2018-08-08T21:52:56.397Z,60.80
2018-08-08T21:55:36.205Z,62.20
2018-08-08T21:58:15.896Z,62.90
2018-08-08T22:01:54.048Z,63.90
2018-08-08T22:04:34.039Z,64.50
2018-08-08T22:07:14.146Z,65.60
2018-08-08T22:09:53.977Z,64.60
2018-08-08T22:12:33.997Z,64.40
2018-08-08T22:15:14.090Z,64.10
2018-08-08T22:17:54.157Z,64.00
2018-08-08T22:20:22.819Z,63.70
2018-08-08T22:22:57.377Z,63.50
2018-08-08T22:25:47.047Z,63.30
2018-08-08T22:28:31.575Z,63.10
2018-08-08T22:31:07.969Z,63.00
2018-08-08T22:33:47.075Z,62.90
2018-08-08T22:36:18.691Z,62.70
2018-08-08T22:38:49.825Z,62.70
2018-08-08T22:41:22.663Z,62.50
2018-08-08T22:43:57.843Z,62.40
2018-08-08T22:46:34.902Z,62.30
2018-08-08T22:49:10.297Z,62.20
2018-08-08T22:51:46.802Z,62.20
2018-08-08T22:54:19.637Z,62.10
2018-08-08T22:56:58.532Z,62.10
2018-08-08T22:59:37.873Z,62.30
2018-08-08T23:02:16.972Z,62.80
2018-08-08T23:04:57.546Z,62.80
2018-08-08T23:07:28.236Z,63.00
2018-08-08T23:10:05.002Z,63.10
2018-08-08T23:12:44.676Z,63.20
2018-08-08T23:15:18.491Z,63.20
2018-08-08T23:17:56.438Z,63.10
2018-08-08T23:20:29.221Z,63.00
2018-08-08T23:23:01.550Z,63.00
2018-08-08T23:25:34.856Z,63.00
2018-08-08T23:28:07.333Z,63.00
2018-08-08T23:30:42.300Z,63.30
2018-08-08T23:33:16.570Z,63.50
2018-08-08T23:35:52.436Z,63.60
2018-08-08T23:38:21.552Z,63.80
2018-08-08T23:41:04.047Z,63.80
2018-08-08T23:43:42.242Z,63.70
2018-08-08T23:46:13.153Z,63.80
2018-08-08T23:48:47.574Z,63.70
2018-08-08T23:51:17.256Z,63.60
2018-08-08T23:53:46.201Z,63.70
2018-08-08T23:56:15.420Z,63.60
2018-08-08T23:58:44.435Z,63.60
